Time;durP1;ratioP1;P1;durP2;ratioP2;P2;SDS_P1;SDS_P2;PMS_P1;PMS_P2;Temp;Humidity;BMP_temperature;BMP_pressure;BME280_temperature;BME280_humidity;BME280_pressure;Samples;Min_cycle;Max_cycle;Signal;HPM_P1;HPM_P2
2022/08/04 00:02:23;;;;;;;;;;;;;;;-144.99;100.00;61100.13;5091728;28;19986;-61
2022/08/04 00:04:53;;;;;;;;;;;;;;;-144.99;100.00;61100.13;5093754;28;20396;-61
2022/08/04 00:07:26;;;;;;;;;;;;;;;-144.99;100.00;61100.13;5089945;28;20010;-60
2022/08/04 00:09:55;;;;;;;;;;;;;;;-144.99;100.00;61100.13;5092765;28;19967;-60
2022/08/04 00:12:25;;;;;;;;;;;;;;;-144.99;100.00;61100.13;5089283;28;19980;-61
2022/08/04 00:14:55;;;;;;;;;;;;;;;-144.99;100.00;61100.13;5090531;28;19924;-62
2022/08/04 00:17:25;;;;;;;;;;;;;;;-144.99;100.00;61100.13;5096196;28;20028;-62
2022/08/04 00:19:55;;;;;;;;;;;;;;;-144.99;100.00;61100.13;5092173;28;19932;-61
2022/08/04 00:22:23;;;;;;;;;;;;;;;-144.99;100.00;61100.13;5086605;28;19967;-61
2022/08/04 00:24:49;;;;;;;;;;;;;;;-144.99;100.00;61100.13;5086729;28;20472;-61
2022/08/04 00:27:16;;;;;;;;;;;;;;;-144.99;100.00;61100.13;5095443;28;20039;-61
2022/08/04 00:29:45;;;;;;;;;;;;;;;-144.99;100.00;61100.13;5098820;28;19930;-61
2022/08/04 00:32:12;;;;;;;;;;;;;;;-144.99;100.00;61100.13;5091354;28;19924;-64
2022/08/04 00:34:38;;;;;;;;;;;;;;;-144.99;100.00;61100.13;5091279;28;19969;-64
2022/08/04 00:37:06;;;;;;;;;;;;;;;-144.99;100.00;61100.13;5089047;28;20356;-64
2022/08/04 00:39:33;;;;;;;;;;;;;;;-144.99;100.00;61100.13;5097677;28;19924;-64
2022/08/04 00:42:14;;;;;;;;;;;;;;;-144.99;100.00;61100.13;5082641;28;19929;-62
2022/08/04 00:44:46;;;;;;;;;;;;;;;-144.99;100.00;61100.13;5087902;28;19951;-62
2022/08/04 00:47:26;;;;;;;;;;;;;;;-144.99;100.00;61100.13;5089499;28;19931;-61
2022/08/04 00:50:02;;;;;;;;;;;;;;;-144.99;100.00;61100.13;5091249;28;19963;-62
2022/08/04 00:52:36;;;;;;;;;;;;;;;-144.99;100.00;61100.13;5088963;28;20154;-63
2022/08/04 00:55:13;;;;;;;;;;;;;;;-144.99;100.00;61100.13;5092970;28;19989;-61
2022/08/04 00:57:49;;;;;;;;;;;;;;;-144.99;100.00;61100.13;5093859;28;19924;-62
2022/08/04 01:00:16;;;;;;;;;;;;;;;-144.99;100.00;61100.13;5089343;28;19924;-62
2022/08/04 01:02:51;;;;;;;;;;;;;;;-144.99;100.00;61100.13;5087285;28;20070;-62
2022/08/04 01:05:21;;;;;;;;;;;;;;;-144.99;100.00;61100.13;5088701;28;19924;-62
2022/08/04 01:07:55;;;;;;;;;;;;;;;-144.99;100.00;61100.13;5090423;28;19924;-65
2022/08/04 01:10:28;;;;;;;;;;;;;;;-144.99;100.00;61100.13;5090744;28;19931;-65
2022/08/04 01:13:10;;;;;;;;;;;;;;;-144.99;100.00;61100.13;5080967;28;20030;-65
2022/08/04 01:15:39;;;;;;;;;;;;;;;-144.99;100.00;61100.13;5087807;28;19931;-67
2022/08/04 01:18:08;;;;;;;;;;;;;;;-144.99;100.00;61100.13;5090371;28;20006;-66
2022/08/04 01:20:41;;;;;;;;;;;;;;;-144.99;100.00;61100.13;5089958;28;20396;-67
2022/08/04 01:23:26;;;;;;;;;;;;;;;-144.99;100.00;61100.13;5089243;28;20014;-67
2022/08/04 01:26:11;;;;;;;;;;;;;;;-144.99;100.00;61100.13;5089658;28;20367;-67
2022/08/04 01:28:46;;;;;;;;;;;;;;;-144.99;100.00;61100.13;5088848;28;19942;-64
2022/08/04 01:31:16;;;;;;;;;;;;;;;-144.99;100.00;61100.13;5084874;28;19924;-62
2022/08/04 01:33:44;;;;;;;;;;;;;;;-144.99;100.00;61100.13;5080055;28;19924;-62
2022/08/04 01:36:11;;;;;;;;;;;;;;;-144.99;100.00;61100.13;5089605;28;19950;-62
2022/08/04 01:38:39;;;;;;;;;;;;;;;-144.99;100.00;61100.13;5088148;28;19951;-63
2022/08/04 01:41:06;;;;;;;;;;;;;;;-144.99;100.00;61100.13;5087142;28;20015;-63
2022/08/04 01:43:33;;;;;;;;;;;;;;;-144.99;100.00;61100.13;5088535;28;20376;-63
2022/08/04 01:46:00;;;;;;;;;;;;;;;-144.99;100.00;61100.13;5091033;28;20035;-63
2022/08/04 01:48:29;;;;;;;;;;;;;;;-144.99;100.00;61100.13;5081693;28;19934;-63
2022/08/04 01:50:57;;;;;;;;;;;;;;;-144.99;100.00;61100.13;5090048;28;19924;-62
2022/08/04 01:53:29;;;;;;;;;;;;;;;-144.99;100.00;61100.13;5089085;28;20007;-66
2022/08/04 01:55:56;;;;;;;;;;;;;;;-144.99;100.00;61100.13;5091876;28;20114;-66
2022/08/04 01:58:23;;;;;;;;;;;;;;;-144.99;100.00;61100.13;5089982;28;20011;-66
2022/08/04 02:00:55;;;;;;;;;;;;;;;-144.99;100.00;61100.13;5084814;28;20100;-65
2022/08/04 02:03:22;;;;;;;;;;;;;;;-144.99;100.00;61100.13;5086535;28;19974;-64
2022/08/04 02:05:50;;;;;;;;;;;;;;;-144.99;100.00;61100.13;5089324;28;19928;-65
2022/08/04 02:08:21;;;;;;;;;;;;;;;-144.99;100.00;61100.13;5092875;28;20014;-65
2022/08/04 02:10:53;;;;;;;;;;;;;;;-144.99;100.00;61100.13;5086552;28;19942;-65
2022/08/04 02:13:23;;;;;;;;;;;;;;;-144.99;100.00;61100.13;5089964;28;19939;-66
2022/08/04 02:15:57;;;;;;;;;;;;;;;-144.99;100.00;61100.13;5094470;28;19924;-66
2022/08/04 02:18:24;;;;;;;;;;;;;;;-144.99;100.00;61100.13;5087996;28;19946;-61
2022/08/04 02:20:55;;;;;;;;;;;;;;;-144.99;100.00;61100.13;5092651;28;19928;-62
2022/08/04 02:23:29;;;;;;;;;;;;;;;-144.99;100.00;61100.13;5089113;28;20019;-63
2022/08/04 02:25:56;;;;;;;;;;;;;;;-144.99;100.00;61100.13;5089225;28;19924;-63
2022/08/04 02:28:25;;;;;;;;;;;;;;;-144.99;100.00;61100.13;5093980;28;19924;-63
2022/08/04 02:30:57;;;;;;;;;;;;;;;-144.99;100.00;61100.13;5089037;28;20037;-63
2022/08/04 02:33:26;;;;;;;;;;;;;;;-144.99;100.00;61100.13;5089881;28;19975;-64
2022/08/04 02:35:59;;;;;;;;;;;;;;;-144.99;100.00;61100.13;5084847;28;20212;-65
2022/08/04 02:38:31;;;;;;;;;;;;;;;-144.99;100.00;61100.13;5087390;28;19930;-65
2022/08/04 02:41:00;;;;;;;;;;;;;;;-144.99;100.00;61100.13;5091749;28;19975;-65
2022/08/04 02:43:27;;;;;;;;;;;;;;;-144.99;100.00;61100.13;5096447;28;20460;-61
2022/08/04 02:45:55;;;;;;;;;;;;;;;-144.99;100.00;61100.13;5094093;28;20038;-64
2022/08/04 02:48:23;;;;;;;;;;;;;;;-144.99;100.00;61100.13;5095200;28;19924;-64
2022/08/04 02:50:51;;;;;;;;;;;;;;;-144.99;100.00;61100.13;5094761;28;19925;-64
2022/08/04 02:53:21;;;;;;;;;;;;;;;-144.99;100.00;61100.13;5085389;28;19924;-64
2022/08/04 02:55:48;;;;;;;;;;;;;;;-144.99;100.00;61100.13;5089290;28;20372;-64
2022/08/04 02:58:16;;;;;;;;;;;;;;;-144.99;100.00;61100.13;5096149;28;20376;-63
2022/08/04 03:00:44;;;;;;;;;;;;;;;-144.99;100.00;61100.13;5097810;28;20011;-63
2022/08/04 03:03:16;;;;;;;;;;;;;;;-144.99;100.00;61100.13;5091748;28;20359;-63
2022/08/04 03:05:58;;;;;;;;;;;;;;;-144.99;100.00;61100.13;5092921;28;19959;-61
2022/08/04 03:08:38;;;;;;;;;;;;;;;-144.99;100.00;61100.13;5096772;28;20360;-62
2022/08/04 03:11:25;;;;;;;;;;;;;;;-144.99;100.00;61100.13;5092969;28;20058;-61
2022/08/04 03:14:05;;;;;;;;;;;;;;;-144.99;100.00;61100.13;5093821;28;19964;-61
2022/08/04 03:16:43;;;;;;;;;;;;;;;-144.99;100.00;61100.13;5087151;28;19924;-62
2022/08/04 03:19:24;;;;;;;;;;;;;;;-144.99;100.00;61100.13;5099803;28;19930;-64
2022/08/04 03:22:00;;;;;;;;;;;;;;;-144.99;100.00;61100.13;5091042;28;19932;-64
2022/08/04 03:24:45;;;;;;;;;;;;;;;-144.99;100.00;61100.13;5099729;28;20034;-64
2022/08/04 03:27:17;;;;;;;;;;;;;;;-144.99;100.00;61100.13;5098982;28;19967;-64
2022/08/04 03:29:55;;;;;;;;;;;;;;;-144.99;100.00;61100.13;5094531;28;20019;-63
2022/08/04 03:32:34;;;;;;;;;;;;;;;-144.99;100.00;61100.13;5089273;28;19955;-62
2022/08/04 03:35:16;;;;;;;;;;;;;;;-144.99;100.00;61100.13;5090362;28;19967;-61
2022/08/04 03:38:00;;;;;;;;;;;;;;;-144.99;100.00;61100.13;5092290;28;19975;-61
2022/08/04 03:40:35;;;;;;;;;;;;;;;-144.99;100.00;61100.13;5089683;28;19930;-62
2022/08/04 03:45:55;;;;;;;;;;;;;;;-144.99;100.00;61100.13;5064483;28;19935;-62
2022/08/04 03:48:37;;;;;;;;;;;;;;;-144.99;100.00;61100.13;5071153;28;19924;-63
2022/08/04 03:54:29;;;;;;;;;;;;;;;-144.99;100.00;61100.13;5071338;28;20284;-62
2022/08/04 03:57:05;;;;;;;;;;;;;;;-144.99;100.00;61100.13;5031321;28;20381;-61
2022/08/04 03:59:45;;;;;;;;;;;;;;;-144.99;100.00;61100.13;5027865;28;19969;-61
2022/08/04 04:02:30;;;;;;;;;;;;;;;-144.99;100.00;61100.13;5065771;28;19975;-62
2022/08/04 04:05:04;;;;;;;;;;;;;;;-144.99;100.00;61100.13;5067058;28;19925;-60
2022/08/04 04:07:58;;;;;;;;;;;;;;;-144.99;100.00;61100.13;5072419;28;19924;-61
2022/08/04 04:10:30;;;;;;;;;;;;;;;-144.99;100.00;61100.13;5072328;28;19925;-61
2022/08/04 04:13:14;;;;;;;;;;;;;;;-144.99;100.00;61100.13;5073474;28;20365;-61
2022/08/04 04:15:51;;;;;;;;;;;;;;;-144.99;100.00;61100.13;5064997;28;20023;-66
2022/08/04 04:18:38;;;;;;;;;;;;;;;-144.99;100.00;61100.13;5076480;28;19924;-61
2022/08/04 04:21:21;;;;;;;;;;;;;;;-144.99;100.00;61100.13;5071295;28;19940;-65
2022/08/04 04:24:02;;;;;;;;;;;;;;;-144.99;100.00;61100.13;5079843;28;19967;-65
2022/08/04 04:26:38;;;;;;;;;;;;;;;-144.99;100.00;61100.13;5069367;28;19997;-66
2022/08/04 04:29:21;;;;;;;;;;;;;;;-144.99;100.00;61100.13;5069257;28;19932;-64
2022/08/04 04:31:59;;;;;;;;;;;;;;;-144.99;100.00;61100.13;5069276;28;20111;-62
2022/08/04 04:34:37;;;;;;;;;;;;;;;-144.99;100.00;61100.13;5066654;28;19924;-63
2022/08/04 04:37:12;;;;;;;;;;;;;;;-144.99;100.00;61100.13;5065914;28;19925;-63
2022/08/04 04:39:46;;;;;;;;;;;;;;;-144.99;100.00;61100.13;5070428;28;19964;-63
2022/08/04 04:42:24;;;;;;;;;;;;;;;-144.99;100.00;61100.13;5072404;28;19970;-65
2022/08/04 04:45:06;;;;;;;;;;;;;;;-144.99;100.00;61100.13;5063819;28;19932;-64
2022/08/04 04:47:37;;;;;;;;;;;;;;;-144.99;100.00;61100.13;5068183;28;19928;-64
2022/08/04 04:50:10;;;;;;;;;;;;;;;-144.99;100.00;61100.13;5076312;28;19929;-64
2022/08/04 04:52:40;;;;;;;;;;;;;;;-144.99;100.00;61100.13;5084517;28;20026;-64
2022/08/04 04:55:10;;;;;;;;;;;;;;;-144.99;100.00;61100.13;5069675;28;20027;-64
2022/08/04 04:57:37;;;;;;;;;;;;;;;-144.99;100.00;61100.13;5080389;28;20059;-64
2022/08/04 05:00:05;;;;;;;;;;;;;;;-144.99;100.00;61100.13;5081779;28;20440;-64
2022/08/04 05:02:50;;;;;;;;;;;;;;;-144.99;100.00;61100.13;5072556;28;19943;-71
2022/08/04 05:05:30;;;;;;;;;;;;;;;-144.99;100.00;61100.13;5071742;28;19924;-69
2022/08/04 05:08:11;;;;;;;;;;;;;;;-144.99;100.00;61100.13;5066532;28;19924;-69
2022/08/04 05:10:48;;;;;;;;;;;;;;;-144.99;100.00;61100.13;5066237;28;19928;-69
2022/08/04 05:13:25;;;;;;;;;;;;;;;-144.99;100.00;61100.13;5071746;28;20341;-69
2022/08/04 05:15:53;;;;;;;;;;;;;;;-144.99;100.00;61100.13;5072688;28;20254;-69
2022/08/04 05:18:22;;;;;;;;;;;;;;;-144.99;100.00;61100.13;5069838;28;19924;-70
2022/08/04 05:20:53;;;;;;;;;;;;;;;-144.99;100.00;61100.13;4724877;28;9999943;-69
2022/08/04 05:23:23;;;;;;;;;;;;;;;-144.99;100.00;61100.13;5067479;28;19929;-70
2022/08/04 05:25:52;;;;;;;;;;;;;;;-144.99;100.00;61100.13;5070550;28;19928;-69
2022/08/04 05:28:21;;;;;;;;;;;;;;;-144.99;100.00;61100.13;5069016;28;19925;-69
2022/08/04 05:30:50;;;;;;;;;;;;;;;-144.99;100.00;61100.13;5073567;28;20030;-69
2022/08/04 05:33:19;;;;;;;;;;;;;;;-144.99;100.00;61100.13;5068748;28;19998;-67
2022/08/04 05:35:48;;;;;;;;;;;;;;;-144.99;100.00;61100.13;5058674;28;20020;-68
2022/08/04 05:38:19;;;;;;;;;;;;;;;-144.99;100.00;61100.13;5067846;28;20015;-67
2022/08/04 05:40:45;;;;;;;;;;;;;;;-144.99;100.00;61100.13;5074597;28;19928;-66
2022/08/04 05:43:12;;;;;;;;;;;;;;;-144.99;100.00;61100.13;5066437;28;19928;-66
2022/08/04 05:45:40;;;;;;;;;;;;;;;-144.99;100.00;61100.13;5065714;28;19971;-66
2022/08/04 05:48:08;;;;;;;;;;;;;;;-144.99;100.00;61100.13;5076088;28;20019;-66
2022/08/04 05:50:35;;;;;;;;;;;;;;;-144.99;100.00;61100.13;5067653;28;19964;-66
2022/08/04 05:53:01;;;;;;;;;;;;;;;-144.99;100.00;61100.13;5066199;28;19928;-67
2022/08/04 05:55:29;;;;;;;;;;;;;;;-144.99;100.00;61100.13;5074472;28;20380;-66
2022/08/04 05:57:56;;;;;;;;;;;;;;;-144.99;100.00;61100.13;5066116;28;20381;-66
2022/08/04 06:00:25;;;;;;;;;;;;;;;-144.99;100.00;61100.13;5062649;28;20055;-71
2022/08/04 06:02:52;;;;;;;;;;;;;;;-144.99;100.00;61100.13;5070303;28;19932;-66
2022/08/04 06:05:19;;;;;;;;;;;;;;;-144.99;100.00;61100.13;5068969;28;20328;-65
2022/08/04 06:07:46;;;;;;;;;;;;;;;-144.99;100.00;61100.13;5065608;28;20067;-65
2022/08/04 06:10:13;;;;;;;;;;;;;;;-144.99;100.00;61100.13;5066476;28;19955;-63
2022/08/04 06:12:44;;;;;;;;;;;;;;;-144.99;100.00;61100.13;5060774;28;20308;-66
2022/08/04 06:15:13;;;;;;;;;;;;;;;-144.99;100.00;61100.13;5068895;28;19928;-68
2022/08/04 06:17:40;;;;;;;;;;;;;;;-144.99;100.00;61100.13;5085827;28;19936;-67
2022/08/04 06:20:09;;;;;;;;;;;;;;;-144.99;100.00;61100.13;5064499;28;20016;-66
2022/08/04 06:22:39;;;;;;;;;;;;;;;-144.99;100.00;61100.13;5075787;28;19932;-67
2022/08/04 06:25:06;;;;;;;;;;;;;;;-144.99;100.00;61100.13;5070051;28;20102;-67
2022/08/04 06:27:33;;;;;;;;;;;;;;;-144.99;100.00;61100.13;5072111;28;19925;-67
2022/08/04 06:30:02;;;;;;;;;;;;;;;-144.99;100.00;61100.13;5061659;28;20007;-68
2022/08/04 06:32:35;;;;;;;;;;;;;;;-144.99;100.00;61100.13;5069464;28;19934;-67
2022/08/04 06:35:02;;;;;;;;;;;;;;;-144.99;100.00;61100.13;5065915;28;19936;-66
2022/08/04 06:37:29;;;;;;;;;;;;;;;-144.99;100.00;61100.13;5081197;28;20273;-66
2022/08/04 06:39:56;;;;;;;;;;;;;;;-144.99;100.00;61100.13;5069199;28;19929;-66
2022/08/04 06:42:24;;;;;;;;;;;;;;;-144.99;100.00;61100.13;5069866;28;20020;-66
2022/08/04 06:44:52;;;;;;;;;;;;;;;-144.99;100.00;61100.13;5069883;28;19943;-65
2022/08/04 06:47:21;;;;;;;;;;;;;;;-144.99;100.00;61100.13;5070447;28;19928;-67
2022/08/04 06:49:49;;;;;;;;;;;;;;;-144.99;100.00;61100.13;5071909;28;19959;-68
2022/08/04 06:52:17;;;;;;;;;;;;;;;-144.99;100.00;61100.13;5079292;28;19928;-67
2022/08/04 06:54:43;;;;;;;;;;;;;;;-144.99;100.00;61100.13;5083408;28;19939;-67
2022/08/04 06:57:11;;;;;;;;;;;;;;;-144.99;100.00;61100.13;5073776;28;20359;-67
2022/08/04 06:59:38;;;;;;;;;;;;;;;-144.99;100.00;61100.13;5069941;28;19932;-67
2022/08/04 07:02:04;;;;;;;;;;;;;;;-144.99;100.00;61100.13;5073881;28;19976;-67
2022/08/04 07:04:32;;;;;;;;;;;;;;;-144.99;100.00;61100.13;5065104;28;20353;-66
2022/08/04 07:06:59;;;;;;;;;;;;;;;-144.99;100.00;61100.13;5064853;28;19933;-68
2022/08/04 07:09:25;;;;;;;;;;;;;;;-144.99;100.00;61100.13;5068827;28;19928;-66
2022/08/04 07:11:52;;;;;;;;;;;;;;;-144.99;100.00;61100.13;5069433;28;20244;-65
2022/08/04 07:14:19;;;;;;;;;;;;;;;-144.99;100.00;61100.13;5061469;28;19956;-66
2022/08/04 07:16:46;;;;;;;;;;;;;;;-144.99;100.00;61100.13;5068435;28;20015;-66
2022/08/04 07:19:12;;;;;;;;;;;;;;;-144.99;100.00;61100.13;5069712;28;20507;-66
2022/08/04 07:21:40;;;;;;;;;;;;;;;-144.99;100.00;61100.13;5069015;28;20221;-66
2022/08/04 07:24:07;;;;;;;;;;;;;;;-144.99;100.00;61100.13;5069457;28;19929;-66
2022/08/04 07:26:33;;;;;;;;;;;;;;;-144.99;100.00;61100.13;5069530;28;19929;-68
2022/08/04 07:29:00;;;;;;;;;;;;;;;-144.99;100.00;61100.13;5076458;28;19988;-66
2022/08/04 07:31:27;;;;;;;;;;;;;;;-144.99;100.00;61100.13;5073125;28;19924;-66
2022/08/04 07:33:55;;;;;;;;;;;;;;;-144.99;100.00;61100.13;5076625;28;19928;-67
2022/08/04 07:36:21;;;;;;;;;;;;;;;-144.99;100.00;61100.13;5069151;28;20407;-67
2022/08/04 07:38:49;;;;;;;;;;;;;;;-144.99;100.00;61100.13;5068557;28;20007;-67
2022/08/04 07:41:19;;;;;;;;;;;;;;;-144.99;100.00;61100.13;5082066;28;19928;-66
2022/08/04 07:43:46;;;;;;;;;;;;;;;-144.99;100.00;61100.13;5085657;28;20015;-64
2022/08/04 07:46:13;;;;;;;;;;;;;;;-144.99;100.00;61100.13;5081989;28;19939;-64
2022/08/04 07:48:39;;;;;;;;;;;;;;;-144.99;100.00;61100.13;5085697;28;19968;-64
2022/08/04 07:51:06;;;;;;;;;;;;;;;-144.99;100.00;61100.13;5069045;28;20055;-63
2022/08/04 07:53:34;;;;;;;;;;;;;;;-144.99;100.00;61100.13;5070750;28;19932;-64
2022/08/04 07:56:02;;;;;;;;;;;;;;;-144.99;100.00;61100.13;5067246;28;19929;-64
2022/08/04 07:58:28;;;;;;;;;;;;;;;-144.99;100.00;61100.13;5081476;28;19989;-64
2022/08/04 08:00:55;;;;;;;;;;;;;;;-144.99;100.00;61100.13;5068442;28;20003;-64
2022/08/04 08:03:23;;;;;;;;;;;;;;;-144.99;100.00;61100.13;5068380;28;20015;-64
2022/08/04 08:05:50;;;;;;;;;;;;;;;-144.99;100.00;61100.13;5067357;28;20012;-64
2022/08/04 08:08:19;;;;;;;;;;;;;;;-144.99;100.00;61100.13;5070703;28;19963;-64
2022/08/04 08:10:47;;;;;;;;;;;;;;;-144.99;100.00;61100.13;5069254;28;19924;-64
2022/08/04 08:13:15;;;;;;;;;;;;;;;-144.99;100.00;61100.13;5067756;28;19932;-64
2022/08/04 08:15:44;;;;;;;;;;;;;;;-144.99;100.00;61100.13;5068106;28;20288;-64
2022/08/04 08:18:10;;;;;;;;;;;;;;;-144.99;100.00;61100.13;5067722;28;20415;-65
2022/08/04 08:20:37;;;;;;;;;;;;;;;-144.99;100.00;61100.13;5068060;28;20350;-65
2022/08/04 08:23:03;;;;;;;;;;;;;;;-144.99;100.00;61100.13;5076821;28;20015;-65
2022/08/04 08:25:30;;;;;;;;;;;;;;;-144.99;100.00;61100.13;5068057;28;19982;-65
2022/08/04 08:27:57;;;;;;;;;;;;;;;-144.99;100.00;61100.13;5067285;28;19933;-65
2022/08/04 08:30:25;;;;;;;;;;;;;;;-144.99;100.00;61100.13;5081866;28;20018;-64
2022/08/04 08:32:51;;;;;;;;;;;;;;;-144.99;100.00;61100.13;5068314;28;19947;-65
2022/08/04 08:35:18;;;;;;;;;;;;;;;-144.99;100.00;61100.13;5082934;28;20408;-65
2022/08/04 08:37:48;;;;;;;;;;;;;;;-144.99;100.00;61100.13;5081177;28;19928;-65
2022/08/04 08:40:26;;;;;;;;;;;;;;;-144.99;100.00;61100.13;5064817;28;19928;-64
2022/08/04 08:43:00;;;;;;;;;;;;;;;-144.99;100.00;61100.13;5085119;28;19929;-64
2022/08/04 08:45:46;;;;;;;;;;;;;;;-144.99;100.00;61100.13;5082069;28;20346;-64
2022/08/04 08:48:33;;;;;;;;;;;;;;;-144.99;100.00;61100.13;5077994;28;19939;-64
2022/08/04 08:51:18;;;;;;;;;;;;;;;-144.99;100.00;61100.13;5078036;28;19928;-64
2022/08/04 08:53:50;;;;;;;;;;;;;;;-144.99;100.00;61100.13;5083882;28;19971;-64
2022/08/04 08:56:26;;;;;;;;;;;;;;;-144.99;100.00;61100.13;5075905;28;19979;-64
2022/08/04 08:59:14;;;;;;;;;;;;;;;-144.99;100.00;61100.13;5077662;28;19924;-64
2022/08/04 09:01:48;;;;;;;;;;;;;;;-144.99;100.00;61100.13;5076250;28;19965;-63
2022/08/04 09:04:32;;;;;;;;;;;;;;;-144.99;100.00;61100.13;5076135;28;20086;-64
2022/08/04 09:07:26;;;;;;;;;;;;;;;-144.99;100.00;61100.13;5077787;28;19928;-65
2022/08/04 09:10:02;;;;;;;;;;;;;;;-144.99;100.00;61100.13;5075535;28;19939;-65
2022/08/04 09:12:33;;;;;;;;;;;;;;;-144.99;100.00;61100.13;5074498;28;19978;-67
2022/08/04 09:15:03;;;;;;;;;;;;;;;-144.99;100.00;61100.13;5078258;28;19980;-63
2022/08/04 09:17:32;;;;;;;;;;;;;;;-144.99;100.00;61100.13;5086929;28;19928;-65
2022/08/04 09:20:03;;;;;;;;;;;;;;;-144.99;100.00;61100.13;5072383;28;20016;-65
2022/08/04 09:22:33;;;;;;;;;;;;;;;-144.99;100.00;61100.13;5065695;28;19928;-65
2022/08/04 09:25:03;;;;;;;;;;;;;;;-144.99;100.00;61100.13;5070703;28;19954;-65
2022/08/04 09:27:35;;;;;;;;;;;;;;;-144.99;100.00;61100.13;5069916;28;19932;-62
2022/08/04 09:30:03;;;;;;;;;;;;;;;-144.99;100.00;61100.13;5065380;28;19929;-62
2022/08/04 09:32:32;;;;;;;;;;;;;;;-144.99;100.00;61100.13;5068225;28;20134;-64
2022/08/04 09:35:06;;;;;;;;;;;;;;;-144.99;100.00;61100.13;5076678;28;20035;-64
2022/08/04 09:37:36;;;;;;;;;;;;;;;-144.99;100.00;61100.13;5079810;28;20306;-64
2022/08/04 09:40:06;;;;;;;;;;;;;;;-144.99;100.00;61100.13;5081160;28;20026;-64
2022/08/04 09:42:37;;;;;;;;;;;;;;;-144.99;100.00;61100.13;5077526;28;20325;-64
2022/08/04 09:45:10;;;;;;;;;;;;;;;-144.99;100.00;61100.13;5064081;22;20152;-69
2022/08/04 09:47:39;;;;;;;;;;;;;;;-144.99;100.00;61100.13;5050767;28;19933;-68
2022/08/04 09:50:14;;;;;;;;;;;;;;;-144.99;100.00;61100.13;5061871;28;19924;-68
2022/08/04 09:52:44;;;;;;;;;;;;;;;-144.99;100.00;61100.13;5046754;28;19990;-69
2022/08/04 09:55:15;;;;;;;;;;;;;;;-144.99;100.00;61100.13;5046966;28;20012;-70
2022/08/04 09:57:46;;;;;;;;;;;;;;;-144.99;100.00;61100.13;5042827;28;20023;-69
2022/08/04 10:00:15;;;;;;;;;;;;;;;-144.99;100.00;61100.13;5045977;28;19928;-69
2022/08/04 10:02:44;;;;;;;;;;;;;;;-144.99;100.00;61100.13;5053008;28;19935;-69
2022/08/04 10:05:14;;;;;;;;;;;;;;;-144.99;100.00;61100.13;5052911;28;20330;-69
2022/08/04 10:07:59;;;;;;;;;;;;;;;-144.99;100.00;61100.13;5051464;28;20136;-69
2022/08/04 10:10:32;;;;;;;;;;;;;;;-144.99;100.00;61100.13;5033356;28;20012;-69
2022/08/04 10:13:07;;;;;;;;;;;;;;;-144.99;100.00;61100.13;5040335;28;19931;-69
2022/08/04 10:15:36;;;;;;;;;;;;;;;-144.99;100.00;61100.13;5052687;28;20023;-69
2022/08/04 10:18:07;;;;;;;;;;;;;;;-144.99;100.00;61100.13;5051169;28;19936;-69
2022/08/04 10:20:42;;;;;;;;;;;;;;;-144.99;100.00;61100.13;5037759;28;20015;-69
2022/08/04 10:23:12;;;;;;;;;;;;;;;-144.99;100.00;61100.13;5046724;28;20133;-69
2022/08/04 10:25:45;;;;;;;;;;;;;;;-144.99;100.00;61100.13;5045975;28;20296;-69
2022/08/04 10:28:13;;;;;;;;;;;;;;;-144.99;100.00;61100.13;5046873;28;19933;-69
2022/08/04 10:30:44;;;;;;;;;;;;;;;-144.99;100.00;61100.13;5050271;28;19932;-69
2022/08/04 10:33:12;;;;;;;;;;;;;;;-144.99;100.00;61100.13;5041144;28;19931;-69
2022/08/04 10:35:45;;;;;;;;;;;;;;;-144.99;100.00;61100.13;5051949;28;19928;-70
2022/08/04 10:38:15;;;;;;;;;;;;;;;-144.99;100.00;61100.13;5054370;28;20027;-70
2022/08/04 10:40:45;;;;;;;;;;;;;;;-144.99;100.00;61100.13;5046769;28;19976;-72
2022/08/04 10:43:18;;;;;;;;;;;;;;;-144.99;100.00;61100.13;5057825;28;19935;-71
2022/08/04 10:45:47;;;;;;;;;;;;;;;-144.99;100.00;61100.13;5055913;28;20344;-70
2022/08/04 10:48:19;;;;;;;;;;;;;;;-144.99;100.00;61100.13;5054961;28;20612;-70
2022/08/04 10:50:55;;;;;;;;;;;;;;;-144.99;100.00;61100.13;5054756;28;20376;-70
2022/08/04 10:53:25;;;;;;;;;;;;;;;-144.99;100.00;61100.13;5046183;28;19936;-70
2022/08/04 10:55:56;;;;;;;;;;;;;;;-144.99;100.00;61100.13;5046969;28;19924;-69
2022/08/04 10:58:26;;;;;;;;;;;;;;;-144.99;100.00;61100.13;5049353;28;19960;-71
2022/08/04 11:00:55;;;;;;;;;;;;;;;-144.99;100.00;61100.13;5046470;28;19936;-69
2022/08/04 11:03:24;;;;;;;;;;;;;;;-144.99;100.00;61100.13;5046494;28;20401;-69
2022/08/04 11:05:53;;;;;;;;;;;;;;;-144.99;100.00;61100.13;5046743;28;19929;-70
2022/08/04 11:08:23;;;;;;;;;;;;;;;-144.99;100.00;61100.13;5046203;28;20028;-70
2022/08/04 11:10:55;;;;;;;;;;;;;;;-144.99;100.00;61100.13;5041183;28;19936;-69
2022/08/04 11:13:22;;;;;;;;;;;;;;;-144.99;100.00;61100.13;5040618;28;19971;-69
2022/08/04 11:15:51;;;;;;;;;;;;;;;-144.99;100.00;61100.13;5054804;28;19928;-68
2022/08/04 11:18:23;;;;;;;;;;;;;;;-144.99;100.00;61100.13;5049004;28;19957;-68
2022/08/04 11:20:52;;;;;;;;;;;;;;;-144.99;100.00;61100.13;5056765;28;19979;-69
2022/08/04 11:23:23;;;;;;;;;;;;;;;-144.99;100.00;61100.13;5049654;28;19931;-69
2022/08/04 11:25:52;;;;;;;;;;;;;;;-144.99;100.00;61100.13;5057890;28;19935;-69
2022/08/04 11:28:23;;;;;;;;;;;;;;;-144.99;100.00;61100.13;5051019;28;20357;-69
2022/08/04 11:30:52;;;;;;;;;;;;;;;-144.99;100.00;61100.13;5059876;28;19929;-68
2022/08/04 11:33:21;;;;;;;;;;;;;;;-144.99;100.00;61100.13;5050340;28;20249;-68
2022/08/04 11:35:52;;;;;;;;;;;;;;;-144.99;100.00;61100.13;5049740;28;19964;-69
2022/08/04 11:38:25;;;;;;;;;;;;;;;-144.99;100.00;61100.13;5049129;28;19928;-70
2022/08/04 11:40:54;;;;;;;;;;;;;;;-144.99;100.00;61100.13;5061482;28;20013;-69
2022/08/04 11:43:23;;;;;;;;;;;;;;;-144.99;100.00;61100.13;5052597;28;19974;-69
2022/08/04 11:45:53;;;;;;;;;;;;;;;-144.99;100.00;61100.13;5050774;28;19929;-69
2022/08/04 11:48:24;;;;;;;;;;;;;;;-144.99;100.00;61100.13;5049079;28;19929;-68
2022/08/04 11:50:52;;;;;;;;;;;;;;;-144.99;100.00;61100.13;5057025;28;19999;-69
2022/08/04 11:53:20;;;;;;;;;;;;;;;-144.99;100.00;61100.13;5043957;28;20369;-68
2022/08/04 11:55:51;;;;;;;;;;;;;;;-144.99;100.00;61100.13;5054431;28;19925;-69
2022/08/04 11:58:18;;;;;;;;;;;;;;;-144.99;100.00;61100.13;5041571;28;20006;-69
2022/08/04 12:00:51;;;;;;;;;;;;;;;-144.99;100.00;61100.13;5049354;28;19932;-70
2022/08/04 12:03:27;;;;;;;;;;;;;;;-144.99;100.00;61100.13;5049522;28;19980;-70
2022/08/04 12:05:58;;;;;;;;;;;;;;;-144.99;100.00;61100.13;5045256;28;20025;-69
2022/08/04 12:08:34;;;;;;;;;;;;;;;-144.99;100.00;61100.13;5056466;28;19928;-68
2022/08/04 12:11:09;;;;;;;;;;;;;;;-144.99;100.00;61100.13;5048423;28;20235;-68
2022/08/04 12:13:40;;;;;;;;;;;;;;;-144.99;100.00;61100.13;5049936;28;20028;-69
2022/08/04 12:16:14;;;;;;;;;;;;;;;-144.99;100.00;61100.13;5060059;28;19928;-69
2022/08/04 12:18:45;;;;;;;;;;;;;;;-144.99;100.00;61100.13;5045403;28;20027;-69
2022/08/04 12:21:14;;;;;;;;;;;;;;;-144.99;100.00;61100.13;5049400;28;19935;-69
2022/08/04 12:23:42;;;;;;;;;;;;;;;-144.99;100.00;61100.13;5049187;28;20408;-69
2022/08/04 12:26:14;;;;;;;;;;;;;;;-144.99;100.00;61100.13;5049807;28;19935;-70
2022/08/04 12:28:41;;;;;;;;;;;;;;;-144.99;100.00;61100.13;5058349;28;19932;-70
2022/08/04 12:31:15;;;;;;;;;;;;;;;-144.99;100.00;61100.13;5055452;28;19968;-70
2022/08/04 12:33:46;;;;;;;;;;;;;;;-144.99;100.00;61100.13;5056822;28;19933;-69
2022/08/04 12:36:18;;;;;;;;;;;;;;;-144.99;100.00;61100.13;5049053;28;19971;-69
2022/08/04 12:38:48;;;;;;;;;;;;;;;-144.99;100.00;61100.13;5063369;28;20292;-70
2022/08/04 12:41:21;;;;;;;;;;;;;;;-144.99;100.00;61100.13;5057634;28;19929;-68
2022/08/04 12:43:49;;;;;;;;;;;;;;;-144.99;100.00;61100.13;5063058;28;19924;-68
2022/08/04 12:46:19;;;;;;;;;;;;;;;-144.99;100.00;61100.13;5056858;28;19929;-68